createdAt,value
2018-03-02T00:01:17.654Z,37.63
2018-03-02T00:03:45.785Z,44.43
2018-03-02T00:06:14.987Z,47.93
2018-03-02T00:08:43.242Z,45.00
2018-03-02T00:11:11.521Z,46.50
2018-03-02T00:13:39.751Z,49.60
2018-03-02T00:16:07.989Z,49.20
2018-03-02T00:18:36.257Z,49.30
2018-03-02T00:21:05.312Z,47.67
2018-03-02T00:23:33.433Z,43.43
2018-03-02T00:26:02.319Z,44.37
2018-03-02T00:28:30.433Z,41.00
2018-03-02T00:30:58.572Z,45.83
2018-03-02T00:33:26.737Z,50.80
2018-03-02T00:35:54.877Z,46.43
2018-03-02T00:38:23.039Z,49.23
2018-03-02T00:40:51.922Z,43.67
2018-03-02T00:43:20.047Z,51.90
2018-03-02T00:45:48.188Z,50.10
2018-03-02T00:48:16.321Z,51.80
2018-03-02T00:50:44.459Z,47.07
2018-03-02T00:53:12.730Z,44.93
2018-03-02T00:55:40.949Z,44.23
2018-03-02T00:58:09.111Z,49.40
2018-03-02T01:00:37.324Z,49.97
2018-03-02T01:03:05.493Z,51.90
2018-03-02T01:05:33.614Z,53.60
2018-03-02T01:08:02.454Z,52.03
2018-03-02T01:10:30.579Z,51.17
2018-03-02T01:12:58.758Z,51.97
2018-03-02T01:15:26.946Z,46.57
2018-03-02T01:17:55.154Z,55.30
2018-03-02T01:20:24.688Z,52.77
2018-03-02T01:22:52.816Z,55.70
2018-03-02T01:25:20.948Z,49.30
2018-03-02T01:27:49.112Z,58.63
2018-03-02T01:30:17.304Z,48.93
2018-03-02T01:32:45.466Z,59.97
2018-03-02T01:35:13.576Z,52.73
2018-03-02T01:37:42.307Z,51.87
2018-03-02T01:40:10.414Z,45.07
2018-03-02T01:42:38.833Z,51.07
2018-03-02T01:45:07.000Z,50.80
2018-03-02T01:47:35.365Z,51.47
2018-03-02T01:50:03.505Z,51.37
2018-03-02T01:52:31.669Z,46.50
2018-03-02T01:54:59.861Z,52.77
2018-03-02T01:57:28.074Z,55.60
2018-03-02T01:59:56.313Z,53.33
2018-03-02T02:02:24.553Z,54.90
2018-03-02T02:04:52.864Z,48.63
2018-03-02T02:07:21.177Z,51.87
2018-03-02T02:09:49.330Z,54.97
2018-03-02T02:12:17.615Z,50.53
2018-03-02T02:14:45.721Z,54.67
2018-03-02T02:17:13.882Z,56.93
2018-03-02T02:19:42.000Z,54.10
2018-03-02T02:22:10.246Z,54.53
2018-03-02T02:24:42.629Z,56.07
2018-03-02T02:27:10.783Z,49.10
2018-03-02T02:29:38.965Z,52.77
2018-03-02T02:32:07.141Z,61.03
2018-03-02T02:34:35.279Z,58.60
2018-03-02T02:37:03.420Z,59.37
2018-03-02T02:39:31.558Z,53.40
2018-03-02T02:41:59.665Z,58.33
2018-03-02T02:44:27.874Z,56.70
2018-03-02T02:46:55.976Z,52.90
2018-03-02T02:49:24.176Z,53.47
2018-03-02T02:51:52.430Z,58.80
2018-03-02T02:54:20.680Z,48.93
2018-03-02T02:56:48.870Z,52.83
2018-03-02T02:59:16.995Z,57.33
2018-03-02T03:01:45.117Z,54.03
2018-03-02T03:04:13.274Z,53.87
2018-03-02T03:06:41.394Z,50.07
2018-03-02T03:09:09.513Z,51.37
2018-03-02T03:11:37.745Z,54.60
2018-03-02T03:14:05.857Z,56.23
2018-03-02T03:16:34.021Z,52.40
2018-03-02T03:19:06.160Z,55.13
2018-03-02T03:21:34.309Z,53.10
2018-03-02T03:24:02.591Z,57.03
2018-03-02T03:26:30.801Z,61.00
2018-03-02T03:28:59.036Z,53.53
2018-03-02T03:31:27.350Z,54.97
2018-03-02T03:33:55.529Z,56.50
2018-03-02T03:49:19.240Z,40.90
2018-03-02T03:51:47.572Z,53.33
2018-03-02T03:54:16.093Z,53.87
2018-03-02T03:56:44.210Z,60.77
2018-03-02T03:59:12.349Z,55.10
2018-03-02T04:01:40.553Z,55.97
2018-03-02T04:04:08.780Z,61.80
2018-03-02T04:06:36.896Z,51.70
2018-03-02T04:09:05.074Z,58.70
2018-03-02T04:11:33.207Z,60.80
2018-03-02T04:14:01.344Z,57.30
2018-03-02T04:16:29.460Z,53.03
2018-03-02T04:18:57.685Z,60.07
2018-03-02T04:21:25.788Z,63.37
2018-03-02T04:23:53.944Z,57.17
2018-03-02T04:26:22.112Z,52.47
2018-03-02T04:28:50.234Z,48.07
2018-03-02T04:31:19.176Z,54.17
2018-03-02T04:33:47.379Z,57.60
2018-03-02T04:36:15.499Z,54.37
2018-03-02T04:38:43.599Z,64.27
2018-03-02T04:41:11.715Z,57.40
2018-03-02T04:43:39.866Z,60.43
2018-03-02T04:46:08.111Z,62.60
2018-03-02T04:48:36.244Z,57.60
2018-03-02T04:51:04.361Z,57.57
2018-03-02T04:53:32.491Z,51.53
2018-03-02T04:56:02.368Z,54.87
2018-03-02T04:58:30.508Z,49.83
2018-03-02T05:00:58.700Z,58.50
2018-03-02T05:03:26.815Z,52.77
2018-03-02T05:05:55.024Z,51.87
2018-03-02T05:08:23.155Z,56.53
2018-03-02T05:10:52.601Z,57.70
2018-03-02T05:13:20.715Z,59.77
2018-03-02T05:15:48.924Z,51.30
2018-03-02T05:18:17.072Z,51.47
2018-03-02T05:20:45.192Z,54.70
2018-03-02T05:23:13.386Z,51.10
2018-03-02T05:25:41.528Z,58.97
2018-03-02T05:28:09.693Z,58.30
2018-03-02T05:30:37.886Z,52.77
2018-03-02T05:33:06.006Z,56.17
2018-03-02T05:35:34.114Z,58.13
2018-03-02T05:38:03.104Z,55.30
2018-03-02T05:40:31.344Z,56.77
2018-03-02T05:42:59.561Z,60.27
2018-03-02T05:45:27.810Z,54.23
2018-03-02T05:47:56.013Z,58.43
2018-03-02T05:50:24.254Z,58.37
2018-03-02T05:52:52.493Z,60.87
2018-03-02T05:55:20.659Z,59.77
2018-03-02T05:57:48.767Z,64.03
2018-03-02T06:00:16.897Z,61.90
2018-03-02T06:02:45.768Z,63.90
2018-03-02T06:05:13.865Z,56.53
2018-03-02T06:07:42.051Z,53.13
2018-03-02T06:10:10.181Z,57.27
2018-03-02T06:12:39.064Z,57.40
2018-03-02T06:15:08.041Z,51.37
2018-03-02T06:17:36.169Z,59.40
2018-03-02T06:20:05.108Z,54.87
2018-03-02T06:22:33.250Z,57.57
2018-03-02T06:25:01.368Z,62.50
2018-03-02T06:27:29.978Z,57.10
2018-03-02T06:29:58.207Z,58.90
2018-03-02T06:32:26.350Z,55.83
2018-03-02T06:34:54.502Z,67.10
2018-03-02T06:37:23.453Z,60.43
2018-03-02T06:39:51.576Z,58.10
2018-03-02T06:42:19.755Z,58.70
2018-03-02T06:44:47.988Z,55.50
2018-03-02T06:47:20.378Z,58.40
2018-03-02T06:49:48.536Z,57.97
2018-03-02T06:52:17.476Z,58.37
2018-03-02T06:54:45.604Z,56.73
2018-03-02T06:57:13.791Z,57.77
2018-03-02T06:59:41.928Z,51.50
2018-03-02T07:02:10.739Z,54.43
2018-03-02T07:04:38.909Z,51.77
2018-03-02T07:07:11.627Z,61.30
2018-03-02T07:09:39.870Z,66.97
2018-03-02T07:12:08.419Z,55.77
2018-03-02T07:14:36.563Z,60.53
2018-03-02T07:17:04.681Z,51.27
2018-03-02T07:19:32.814Z,61.90
2018-03-02T07:22:00.995Z,54.33
2018-03-02T07:24:29.099Z,50.27
2018-03-02T07:26:57.230Z,58.87
2018-03-02T07:29:26.022Z,57.97
2018-03-02T07:31:54.177Z,58.50
2018-03-02T07:34:22.343Z,57.80
2018-03-02T07:36:50.509Z,50.93
2018-03-02T07:39:18.713Z,55.83
2018-03-02T07:41:46.874Z,51.90
2018-03-02T07:44:14.999Z,52.47
2018-03-02T07:46:43.680Z,61.70
2018-03-02T07:49:11.799Z,50.97
2018-03-02T07:51:39.917Z,55.07
2018-03-02T07:54:08.825Z,52.00
2018-03-02T07:56:36.927Z,59.37
2018-03-02T07:59:05.042Z,54.07
2018-03-02T08:01:33.147Z,56.00
2018-03-02T08:04:01.247Z,53.07
2018-03-02T08:06:29.356Z,56.47
2018-03-02T08:08:57.493Z,54.97
2018-03-02T08:11:25.617Z,49.93
2018-03-02T08:13:53.730Z,46.90
2018-03-02T08:16:21.867Z,58.20
2018-03-02T08:18:50.749Z,50.43
2018-03-02T08:21:18.886Z,50.03
2018-03-02T08:23:47.033Z,49.23
2018-03-02T08:26:15.214Z,54.03
2018-03-02T08:28:43.330Z,49.97
2018-03-02T08:31:11.438Z,58.27
2018-03-02T08:33:39.572Z,51.07
2018-03-02T08:36:07.685Z,57.50
2018-03-02T08:38:36.610Z,48.60
2018-03-02T08:41:04.705Z,48.20
2018-03-02T08:43:32.844Z,50.70
2018-03-02T08:46:00.948Z,48.70
2018-03-02T08:48:29.106Z,51.17
2018-03-02T08:50:57.254Z,48.03
2018-03-02T08:53:25.420Z,53.77
2018-03-02T08:55:53.557Z,51.37
2018-03-02T08:58:21.668Z,48.73
2018-03-02T09:00:49.772Z,51.27
2018-03-02T09:03:17.903Z,42.57
2018-03-02T09:05:46.769Z,53.77
2018-03-02T09:08:14.886Z,46.40
2018-03-02T09:10:42.999Z,53.80
2018-03-02T09:13:11.111Z,46.27
2018-03-02T09:15:39.247Z,42.80
2018-03-02T09:18:11.749Z,48.20
2018-03-02T09:20:39.855Z,53.77
2018-03-02T09:23:08.014Z,49.27
2018-03-02T09:25:36.911Z,52.50
2018-03-02T09:28:08.893Z,51.30
2018-03-02T09:30:37.004Z,51.73
2018-03-02T09:33:05.113Z,48.77
2018-03-02T09:35:33.279Z,50.33
2018-03-02T09:38:02.150Z,47.33
2018-03-02T09:40:30.280Z,54.80
2018-03-02T09:42:58.388Z,50.60
2018-03-02T09:45:26.524Z,49.13
2018-03-02T09:47:54.636Z,44.37
2018-03-02T09:50:22.816Z,45.77
2018-03-02T09:52:50.993Z,44.20
2018-03-02T09:55:19.164Z,42.10
2018-03-02T09:57:47.400Z,40.77
2018-03-02T10:00:15.498Z,49.60
2018-03-02T10:02:43.636Z,49.67
2018-03-02T10:05:12.250Z,51.17
2018-03-02T10:07:40.416Z,47.40
2018-03-02T10:10:08.604Z,49.13
2018-03-02T10:12:36.728Z,48.50
2018-03-02T10:15:04.858Z,44.67
2018-03-02T10:17:32.967Z,50.33
2018-03-02T10:20:01.678Z,48.77
2018-03-02T10:22:29.777Z,45.73
2018-03-02T10:24:57.926Z,45.60
2018-03-02T10:27:26.015Z,43.00
2018-03-02T10:29:54.140Z,50.43
2018-03-02T10:32:22.242Z,49.87
2018-03-02T10:34:50.323Z,45.77
2018-03-02T10:37:18.498Z,52.50
2018-03-02T10:39:46.730Z,43.33
2018-03-02T10:42:14.972Z,44.60
2018-03-02T10:44:43.154Z,46.47
2018-03-02T10:47:11.391Z,46.30
2018-03-02T10:49:39.855Z,45.97
2018-03-02T10:52:08.041Z,49.30
2018-03-02T10:54:36.167Z,43.43
2018-03-02T10:57:04.284Z,45.83
2018-03-02T10:59:32.413Z,44.13
2018-03-02T11:02:07.117Z,45.87
2018-03-02T11:04:36.083Z,45.73
2018-03-02T11:07:04.236Z,46.37
2018-03-02T11:09:32.420Z,50.20
2018-03-02T11:12:00.727Z,45.37
2018-03-02T11:14:29.014Z,50.37
2018-03-02T11:16:58.177Z,48.87
2018-03-02T11:19:26.276Z,50.80
2018-03-02T11:21:54.376Z,48.00
2018-03-02T11:24:22.490Z,42.67
2018-03-02T11:26:50.602Z,48.90
2018-03-02T11:29:18.693Z,44.70
2018-03-02T11:31:47.582Z,51.43
2018-03-02T11:34:15.665Z,48.43
2018-03-02T11:36:43.777Z,50.33
2018-03-02T11:39:11.883Z,47.57
2018-03-02T11:41:39.983Z,50.27
2018-03-02T11:44:08.096Z,44.33
2018-03-02T11:46:36.458Z,47.27
2018-03-02T11:49:04.580Z,46.53
2018-03-02T11:51:32.671Z,48.10
2018-03-02T11:54:00.877Z,41.77
2018-03-02T11:56:28.972Z,45.43
2018-03-02T11:58:57.117Z,45.50
2018-03-02T12:01:25.190Z,48.03
2018-03-02T12:03:53.301Z,49.10
2018-03-02T12:06:21.392Z,43.80
2018-03-02T12:08:50.273Z,48.60
2018-03-02T12:11:18.478Z,46.70
2018-03-02T12:13:46.577Z,44.50
2018-03-02T12:16:14.680Z,48.27
2018-03-02T12:18:42.781Z,49.10
2018-03-02T12:21:11.653Z,40.37
2018-03-02T12:23:39.744Z,46.87
2018-03-02T12:26:08.633Z,45.57
2018-03-02T12:28:36.787Z,48.47
2018-03-02T12:31:04.869Z,44.27
2018-03-02T12:33:32.940Z,44.07
2018-03-02T12:36:01.081Z,43.80
2018-03-02T12:38:29.268Z,44.80
2018-03-02T12:40:57.363Z,46.07
2018-03-02T12:43:25.496Z,45.27
2018-03-02T12:45:53.619Z,51.57
2018-03-02T12:48:21.738Z,45.87
2018-03-02T12:50:51.258Z,43.50
2018-03-02T12:53:19.420Z,49.17
2018-03-02T12:55:47.552Z,45.07
2018-03-02T12:58:15.642Z,43.40
2018-03-02T13:00:43.735Z,43.13
2018-03-02T13:03:11.902Z,43.97
2018-03-02T13:05:40.098Z,44.37
2018-03-02T13:08:08.329Z,45.87
2018-03-02T13:10:36.539Z,44.03
2018-03-02T13:13:04.647Z,43.23
2018-03-02T13:15:32.763Z,43.60
2018-03-02T13:18:01.363Z,44.63
2018-03-02T13:20:29.498Z,44.30
2018-03-02T13:22:57.648Z,44.97
2018-03-02T13:25:25.769Z,44.87
2018-03-02T13:28:11.504Z,49.23
2018-03-02T13:30:39.627Z,49.03
2018-03-02T13:33:25.225Z,46.80
2018-03-02T13:35:53.377Z,44.63
2018-03-02T13:38:21.475Z,44.20
2018-03-02T13:41:07.171Z,45.20
2018-03-02T13:43:35.313Z,45.10
2018-03-02T13:46:03.444Z,51.27
2018-03-02T13:48:49.542Z,48.67
2018-03-02T13:51:17.814Z,47.60
2018-03-02T13:53:46.002Z,45.97
2018-03-02T13:56:31.729Z,46.57
2018-03-02T13:58:59.947Z,49.40
2018-03-02T14:01:28.059Z,49.03
2018-03-02T14:04:13.853Z,47.07
2018-03-02T14:06:41.941Z,48.03
2018-03-02T14:09:10.075Z,48.10
2018-03-02T14:11:38.176Z,43.37
2018-03-02T14:14:06.277Z,48.27
2018-03-02T14:16:34.426Z,52.47
2018-03-02T14:19:02.563Z,53.00
2018-03-02T14:21:31.510Z,51.80
2018-03-02T14:23:59.611Z,49.03
2018-03-02T14:26:27.714Z,49.77
2018-03-02T14:28:55.801Z,51.30
2018-03-02T14:31:24.008Z,45.07
2018-03-02T14:33:52.089Z,47.77
2018-03-02T14:36:20.975Z,44.60
2018-03-02T14:38:49.053Z,50.97
2018-03-02T14:41:17.913Z,52.17
2018-03-02T14:43:46.085Z,48.03
2018-03-02T14:46:14.315Z,47.63
2018-03-02T14:48:42.609Z,51.70
2018-03-02T14:51:11.483Z,47.40
2018-03-02T14:53:39.691Z,50.83
2018-03-02T14:56:07.807Z,50.50
2018-03-02T14:58:36.727Z,49.67
2018-03-02T15:01:04.853Z,54.07
2018-03-02T15:03:32.971Z,49.03
2018-03-02T15:06:01.077Z,52.20
2018-03-02T15:08:29.172Z,52.90
2018-03-02T15:10:57.287Z,49.80
2018-03-02T15:13:25.372Z,50.80
2018-03-02T15:15:54.214Z,47.33
2018-03-02T15:18:22.420Z,58.50
2018-03-02T15:20:50.511Z,47.40
2018-03-02T15:23:18.738Z,56.97
2018-03-02T15:25:46.800Z,56.10
2018-03-02T15:28:14.901Z,52.40
2018-03-02T15:30:43.020Z,54.00
2018-03-02T15:33:11.120Z,51.00
2018-03-02T15:35:40.234Z,49.57
2018-03-02T15:38:08.418Z,52.67
2018-03-02T15:40:36.510Z,50.90
2018-03-02T15:43:04.667Z,51.40
2018-03-02T15:45:33.391Z,51.97
2018-03-02T15:48:01.570Z,52.93
2018-03-02T15:50:29.761Z,51.57
2018-03-02T15:52:57.990Z,48.90
2018-03-02T15:55:26.194Z,53.47
2018-03-02T15:57:54.375Z,51.77
2018-03-02T16:00:22.473Z,49.53
2018-03-02T16:02:50.593Z,56.37
2018-03-02T16:05:18.849Z,53.80
2018-03-02T16:07:47.190Z,63.70
2018-03-02T16:10:15.285Z,56.90
2018-03-02T16:12:43.412Z,56.50
2018-03-02T16:15:11.560Z,59.50
2018-03-02T16:17:39.664Z,56.50
2018-03-02T16:20:08.527Z,50.83
2018-03-02T16:22:36.625Z,52.50
2018-03-02T16:25:04.749Z,55.87
2018-03-02T16:27:32.852Z,55.23
2018-03-02T16:30:02.219Z,57.27
2018-03-02T16:32:30.328Z,54.80
2018-03-02T16:34:58.549Z,55.67
2018-03-02T16:37:26.646Z,52.97
2018-03-02T16:39:54.732Z,57.73
2018-03-02T16:42:22.876Z,54.10
2018-03-02T16:44:51.010Z,53.57
2018-03-02T16:47:19.189Z,56.27
2018-03-02T16:49:47.314Z,52.20
2018-03-02T16:52:15.898Z,55.10
2018-03-02T16:54:44.168Z,63.10
2018-03-02T16:57:12.370Z,59.67
2018-03-02T16:59:40.591Z,56.60
2018-03-02T17:02:08.910Z,61.43
2018-03-02T17:04:39.252Z,65.77
2018-03-02T17:07:07.399Z,52.83
2018-03-02T17:09:35.571Z,61.73
2018-03-02T17:12:03.776Z,55.00
2018-03-02T17:14:31.989Z,66.67
2018-03-02T17:17:00.119Z,64.33
2018-03-02T17:19:28.253Z,61.77
2018-03-02T17:21:57.187Z,56.80
2018-03-02T17:24:25.324Z,50.87
2018-03-02T17:26:53.427Z,60.47
2018-03-02T17:29:21.604Z,62.17
2018-03-02T17:31:49.717Z,58.30
2018-03-02T17:34:17.929Z,64.63
2018-03-02T17:36:46.048Z,58.97
2018-03-02T17:39:14.194Z,62.03
2018-03-02T17:41:42.301Z,65.63
2018-03-02T17:44:11.202Z,55.40
2018-03-02T17:46:39.322Z,65.03
2018-03-02T17:49:07.455Z,65.70
2018-03-02T17:51:35.566Z,66.67
2018-03-02T17:54:03.697Z,68.40
2018-03-02T17:56:32.648Z,64.17
2018-03-02T17:59:00.766Z,62.43
2018-03-02T18:01:29.601Z,63.10
2018-03-02T18:03:57.734Z,61.30
2018-03-02T18:06:26.706Z,63.93
2018-03-02T18:08:55.586Z,62.77
2018-03-02T18:11:23.690Z,61.27
2018-03-02T18:13:51.808Z,67.60
2018-03-02T18:16:20.857Z,70.97
2018-03-02T18:18:49.000Z,66.73
2018-03-02T18:21:17.118Z,72.87
2018-03-02T18:23:45.228Z,64.17
2018-03-02T18:26:13.422Z,75.93
2018-03-02T18:28:41.555Z,70.27
2018-03-02T18:31:09.973Z,79.00
2018-03-02T18:33:38.222Z,71.20
2018-03-02T18:36:06.340Z,81.50
2018-03-02T18:38:34.503Z,83.50
2018-03-02T18:41:02.649Z,73.73
2018-03-02T18:43:31.555Z,75.90
2018-03-02T18:45:59.711Z,81.67
2018-03-02T18:48:27.839Z,83.67
2018-03-02T18:50:55.961Z,80.37
2018-03-02T18:53:24.162Z,80.27
2018-03-02T18:55:52.285Z,84.10
2018-03-02T18:58:20.484Z,80.90
2018-03-02T19:00:48.661Z,84.53
2018-03-02T19:03:16.851Z,88.23
2018-03-02T19:05:45.116Z,77.87
2018-03-02T19:08:17.320Z,85.27
2018-03-02T19:10:45.453Z,82.43
2018-03-02T19:13:13.569Z,91.60
2018-03-02T19:15:41.694Z,85.87
2018-03-02T19:18:09.815Z,84.07
2018-03-02T19:20:37.950Z,90.27
2018-03-02T19:23:06.066Z,94.97
2018-03-02T19:25:34.174Z,94.83
2018-03-02T19:28:03.048Z,90.43
2018-03-02T19:30:31.280Z,86.53
2018-03-02T19:32:59.434Z,83.03
2018-03-02T19:35:27.756Z,89.70
2018-03-02T19:37:55.912Z,93.00
2018-03-02T19:40:24.024Z,91.30
2018-03-02T19:42:52.168Z,92.83
2018-03-02T19:45:20.273Z,86.70
2018-03-02T19:47:48.492Z,89.13
2018-03-02T19:50:17.368Z,85.23
2018-03-02T19:52:46.210Z,90.47
2018-03-02T19:55:14.415Z,90.07
2018-03-02T19:57:42.555Z,95.90
2018-03-02T20:00:10.679Z,100.27
2018-03-02T20:02:39.573Z,86.17
2018-03-02T20:05:07.809Z,94.20
2018-03-02T20:07:35.980Z,92.30
2018-03-02T20:10:04.124Z,97.10
2018-03-02T20:12:33.024Z,88.63
2018-03-02T20:15:02.172Z,98.13
2018-03-02T20:17:30.404Z,87.13
2018-03-02T20:19:59.974Z,92.37
2018-03-02T20:22:28.904Z,99.07
2018-03-02T20:25:05.377Z,95.87
2018-03-02T20:27:38.683Z,97.77
2018-03-02T20:43:01.892Z,86.63
2018-03-02T20:58:25.138Z,90.77
2018-03-02T21:00:54.127Z,90.03
2018-03-02T21:03:23.229Z,97.60
2018-03-02T21:18:46.369Z,89.23
2018-03-02T21:21:14.918Z,111.43
2018-03-02T21:23:43.442Z,109.57
2018-03-02T21:26:24.156Z,106.50
2018-03-02T21:28:58.744Z,93.43
2018-03-02T21:31:27.475Z,110.03
2018-03-02T21:33:56.067Z,108.63
2018-03-02T21:36:24.783Z,111.03
2018-03-02T21:38:52.929Z,101.00
2018-03-02T21:41:23.909Z,104.63
2018-03-02T21:44:00.519Z,107.73
2018-03-02T21:46:29.764Z,108.73
2018-03-02T21:49:02.701Z,111.87
2018-03-02T21:51:32.262Z,107.00
2018-03-02T21:54:01.052Z,101.37
2018-03-02T21:56:35.821Z,98.20
2018-03-02T21:59:04.012Z,102.33
2018-03-02T22:01:33.077Z,101.60
2018-03-02T22:04:01.996Z,109.30
2018-03-02T22:06:30.998Z,105.30
2018-03-02T22:08:59.307Z,97.17
2018-03-02T22:11:27.444Z,108.20
2018-03-02T22:13:55.552Z,105.33
2018-03-02T22:29:18.814Z,100.27
2018-03-02T22:31:57.240Z,96.73
2018-03-02T22:34:25.901Z,99.43
2018-03-02T22:36:54.413Z,101.93
2018-03-02T22:52:21.890Z,101.30
2018-03-02T22:54:50.143Z,104.37
2018-03-02T22:57:18.383Z,107.57
2018-03-02T22:59:50.774Z,103.83
2018-03-02T23:15:09.082Z,93.67
2018-03-02T23:30:33.020Z,98.23
2018-03-02T23:33:05.691Z,112.97
2018-03-02T23:35:37.510Z,112.13
2018-03-02T23:38:06.277Z,109.90
2018-03-02T23:40:36.089Z,106.30
2018-03-02T23:43:04.313Z,117.27
2018-03-02T23:45:32.867Z,124.47
2018-03-02T23:48:01.798Z,121.37
2018-03-02T23:50:30.024Z,108.80
2018-03-02T23:52:58.207Z,107.10
2018-03-02T23:55:26.368Z,113.33
2018-03-02T23:57:54.546Z,109.33
